Grass Valley, CA (95949)

3:34 AM PDT on August 28, 2016 (GMT -0700)
Alta Sierra | | Change Station

Elev 2350 ft 39.12 °N, 121.06 °W | Updated 29 seconds ago

Clear
Clear
64.8 °F
Feels Like 64.8 °F
N
0.0
Wind Variable Wind from North
Gusts 0.0 mph

Today
High -- | Low -- °F
--% Chance of Precip.
Yesterday
High -- | Low -- °F
Precip. -- in
Pressure 30.11 in
Visibility 10.0 miles
Clouds Clear
Dew Point 56 °F
Humidity 74%
Rainfall 0.00 in
Snow Depth Not available.
6:29 AM 7:40 PM
Waning Crescent, 16% visible
METAR KGOO 281020Z AUTO 00000KT 10SM CLR 19/06 A3011 RMK AO1
Pressure 30.11 in
Visibility 10.0 miles
Clouds Clear
Dew Point 56 °F
Humidity 74%
Rainfall 0.00 in
Snow Depth Not available.
6:29 AM 7:40 PM
Waning Crescent, 16% visible
METAR KGOO 281020Z AUTO 00000KT 10SM CLR 19/06 A3011 RMK AO1

10-Day Weather Forecast

Almanac

Astronomy

Aug. 28, 2016 Rise Set
Actual Time
Civil Twilight
Nautical Twilight
Astronomical Twilight
Moon
Length of Visible Light
Length of Day
Tomorrow will be .
, % of the Moon is Illuminated

Today's Extremes

State Highs State Lows

Community

WunderPhotos

Upload Photos

1,935,541 photos uploaded!

WunderBlog® & News

Nearby

Air Quality

  Air Quality AQ Index Pollutant
Not available.

Snow Depth

Station Depth Elevation

Earthquake Activity

City Distance Mag. Time & Date
Minimum magnitude displayed is 2.5.

Coastal Water Temperatures

Place Temperature

Stations

Nearby Weather Stations

Station Location Temp. Windchill Dew Point Humidity Wind Precip. Elev Updated Type
                   

Watches & Warnings

There are currently no watches in effect.